sensor_id;sensor_type;location;lat;lon;timestamp;P1;durP1;ratioP1;P2;durP2;ratioP2
39264;SDS011;42646;51.910;7.724;2024-03-02T00:01:43;5.78;;;3.22;;
39264;SDS011;42646;51.910;7.724;2024-03-02T00:04:11;5.65;;;3.00;;
39264;SDS011;42646;51.910;7.724;2024-03-02T00:06:39;4.53;;;2.88;;
39264;SDS011;42646;51.910;7.724;2024-03-02T00:09:07;4.57;;;3.08;;
39264;SDS011;42646;51.910;7.724;2024-03-02T00:11:38;4.53;;;2.85;;
39264;SDS011;42646;51.910;7.724;2024-03-02T00:14:06;6.78;;;3.40;;
39264;SDS011;42646;51.910;7.724;2024-03-02T00:16:35;4.38;;;2.90;;
39264;SDS011;42646;51.910;7.724;2024-03-02T00:19:04;4.50;;;2.70;;
39264;SDS011;42646;51.910;7.724;2024-03-02T00:21:33;4.22;;;3.03;;
39264;SDS011;42646;51.910;7.724;2024-03-02T00:24:01;5.03;;;2.90;;
39264;SDS011;42646;51.910;7.724;2024-03-02T00:26:43;4.07;;;2.85;;
39264;SDS011;42646;51.910;7.724;2024-03-02T00:29:11;5.40;;;3.22;;
39264;SDS011;42646;51.910;7.724;2024-03-02T00:31:43;4.90;;;2.95;;
39264;SDS011;42646;51.910;7.724;2024-03-02T00:34:12;4.63;;;3.13;;
39264;SDS011;42646;51.910;7.724;2024-03-02T00:36:43;3.80;;;2.70;;
39264;SDS011;42646;51.910;7.724;2024-03-02T00:39:12;5.15;;;2.90;;
39264;SDS011;42646;51.910;7.724;2024-03-02T00:41:43;5.15;;;3.50;;
39264;SDS011;42646;51.910;7.724;2024-03-02T00:44:12;4.65;;;3.17;;
39264;SDS011;42646;51.910;7.724;2024-03-02T00:46:40;5.65;;;3.00;;
39264;SDS011;42646;51.910;7.724;2024-03-02T00:49:17;4.70;;;2.97;;
39264;SDS011;42646;51.910;7.724;2024-03-02T00:51:48;4.15;;;2.80;;
39264;SDS011;42646;51.910;7.724;2024-03-02T00:54:19;5.78;;;3.10;;
39264;SDS011;42646;51.910;7.724;2024-03-02T00:56:47;4.70;;;3.03;;
39264;SDS011;42646;51.910;7.724;2024-03-02T00:59:15;4.88;;;3.00;;
39264;SDS011;42646;51.910;7.724;2024-03-02T01:01:43;4.10;;;2.88;;
39264;SDS011;42646;51.910;7.724;2024-03-02T01:04:12;5.63;;;2.83;;
39264;SDS011;42646;51.910;7.724;2024-03-02T01:06:41;5.07;;;2.75;;
39264;SDS011;42646;51.910;7.724;2024-03-02T01:09:09;5.93;;;3.10;;
39264;SDS011;42646;51.910;7.724;2024-03-02T01:11:38;5.50;;;3.15;;
39264;SDS011;42646;51.910;7.724;2024-03-02T01:14:06;5.50;;;2.90;;
39264;SDS011;42646;51.910;7.724;2024-03-02T01:16:34;5.32;;;2.95;;
39264;SDS011;42646;51.910;7.724;2024-03-02T01:19:02;4.57;;;2.70;;
39264;SDS011;42646;51.910;7.724;2024-03-02T01:21:32;4.82;;;2.92;;
39264;SDS011;42646;51.910;7.724;2024-03-02T01:24:00;4.40;;;2.97;;
39264;SDS011;42646;51.910;7.724;2024-03-02T01:26:28;4.88;;;3.17;;
39264;SDS011;42646;51.910;7.724;2024-03-02T01:28:55;4.97;;;3.08;;
39264;SDS011;42646;51.910;7.724;2024-03-02T01:31:23;5.30;;;3.00;;
39264;SDS011;42646;51.910;7.724;2024-03-02T01:33:51;4.60;;;2.90;;
39264;SDS011;42646;51.910;7.724;2024-03-02T01:36:19;5.88;;;3.22;;
39264;SDS011;42646;51.910;7.724;2024-03-02T01:38:48;4.47;;;2.92;;
39264;SDS011;42646;51.910;7.724;2024-03-02T01:41:16;6.35;;;3.42;;
39264;SDS011;42646;51.910;7.724;2024-03-02T01:43:44;4.57;;;2.85;;
39264;SDS011;42646;51.910;7.724;2024-03-02T01:46:11;4.45;;;2.90;;
39264;SDS011;42646;51.910;7.724;2024-03-02T01:48:39;5.57;;;3.20;;
39264;SDS011;42646;51.910;7.724;2024-03-02T01:51:08;4.25;;;2.67;;
39264;SDS011;42646;51.910;7.724;2024-03-02T01:53:36;5.10;;;3.00;;
39264;SDS011;42646;51.910;7.724;2024-03-02T01:56:07;4.80;;;3.10;;
39264;SDS011;42646;51.910;7.724;2024-03-02T01:58:34;4.15;;;2.80;;
39264;SDS011;42646;51.910;7.724;2024-03-02T02:01:03;5.57;;;3.22;;
39264;SDS011;42646;51.910;7.724;2024-03-02T02:03:31;4.82;;;3.45;;
39264;SDS011;42646;51.910;7.724;2024-03-02T02:05:59;5.65;;;3.00;;
39264;SDS011;42646;51.910;7.724;2024-03-02T02:08:26;4.68;;;3.17;;
39264;SDS011;42646;51.910;7.724;2024-03-02T02:10:55;4.80;;;3.00;;
39264;SDS011;42646;51.910;7.724;2024-03-02T02:13:24;4.07;;;2.60;;
39264;SDS011;42646;51.910;7.724;2024-03-02T02:15:52;4.85;;;2.97;;
39264;SDS011;42646;51.910;7.724;2024-03-02T02:18:20;4.50;;;2.78;;
39264;SDS011;42646;51.910;7.724;2024-03-02T02:20:48;5.97;;;3.05;;
39264;SDS011;42646;51.910;7.724;2024-03-02T02:23:17;4.25;;;2.65;;
39264;SDS011;42646;51.910;7.724;2024-03-02T02:25:44;4.28;;;2.70;;
39264;SDS011;42646;51.910;7.724;2024-03-02T02:28:12;5.75;;;2.97;;
39264;SDS011;42646;51.910;7.724;2024-03-02T02:30:40;4.47;;;2.72;;
39264;SDS011;42646;51.910;7.724;2024-03-02T02:33:09;5.78;;;3.00;;
39264;SDS011;42646;51.910;7.724;2024-03-02T02:35:36;4.97;;;3.03;;
39264;SDS011;42646;51.910;7.724;2024-03-02T02:38:04;6.25;;;3.00;;
39264;SDS011;42646;51.910;7.724;2024-03-02T02:40:33;6.82;;;2.78;;
39264;SDS011;42646;51.910;7.724;2024-03-02T02:43:00;4.65;;;2.65;;
39264;SDS011;42646;51.910;7.724;2024-03-02T02:45:28;4.97;;;2.60;;
39264;SDS011;42646;51.910;7.724;2024-03-02T02:47:57;3.35;;;2.10;;
39264;SDS011;42646;51.910;7.724;2024-03-02T02:50:24;4.47;;;2.40;;
39264;SDS011;42646;51.910;7.724;2024-03-02T02:52:52;3.80;;;2.20;;
39264;SDS011;42646;51.910;7.724;2024-03-02T02:55:20;3.97;;;2.42;;
39264;SDS011;42646;51.910;7.724;2024-03-02T02:57:49;4.80;;;2.72;;
39264;SDS011;42646;51.910;7.724;2024-03-02T03:00:17;3.88;;;2.42;;
39264;SDS011;42646;51.910;7.724;2024-03-02T03:02:47;4.80;;;2.80;;
39264;SDS011;42646;51.910;7.724;2024-03-02T03:05:17;3.67;;;2.40;;
39264;SDS011;42646;51.910;7.724;2024-03-02T03:07:45;5.80;;;2.78;;
39264;SDS011;42646;51.910;7.724;2024-03-02T03:10:16;4.80;;;2.70;;
39264;SDS011;42646;51.910;7.724;2024-03-02T03:12:44;4.07;;;2.58;;
39264;SDS011;42646;51.910;7.724;2024-03-02T03:15:14;4.22;;;2.78;;
39264;SDS011;42646;51.910;7.724;2024-03-02T03:17:42;4.07;;;2.55;;
39264;SDS011;42646;51.910;7.724;2024-03-02T03:20:12;5.13;;;2.70;;
39264;SDS011;42646;51.910;7.724;2024-03-02T03:22:41;4.78;;;2.65;;
39264;SDS011;42646;51.910;7.724;2024-03-02T03:25:09;4.43;;;2.70;;
39264;SDS011;42646;51.910;7.724;2024-03-02T03:27:37;4.63;;;2.65;;
39264;SDS011;42646;51.910;7.724;2024-03-02T03:30:04;4.57;;;2.50;;
39264;SDS011;42646;51.910;7.724;2024-03-02T03:32:35;4.63;;;2.65;;
39264;SDS011;42646;51.910;7.724;2024-03-02T03:35:03;5.03;;;2.80;;
39264;SDS011;42646;51.910;7.724;2024-03-02T03:37:31;4.00;;;2.40;;
39264;SDS011;42646;51.910;7.724;2024-03-02T03:40:01;4.30;;;2.63;;
39264;SDS011;42646;51.910;7.724;2024-03-02T03:42:33;5.47;;;3.30;;
39264;SDS011;42646;51.910;7.724;2024-03-02T03:45:01;4.85;;;2.65;;
39264;SDS011;42646;51.910;7.724;2024-03-02T03:47:28;3.67;;;2.50;;
39264;SDS011;42646;51.910;7.724;2024-03-02T03:49:57;4.57;;;2.85;;
39264;SDS011;42646;51.910;7.724;2024-03-02T03:52:25;4.88;;;2.67;;
39264;SDS011;42646;51.910;7.724;2024-03-02T03:54:53;4.18;;;2.50;;
39264;SDS011;42646;51.910;7.724;2024-03-02T03:57:21;4.20;;;2.40;;
39264;SDS011;42646;51.910;7.724;2024-03-02T03:59:48;4.20;;;2.85;;
39264;SDS011;42646;51.910;7.724;2024-03-02T04:02:16;4.00;;;2.40;;
39264;SDS011;42646;51.910;7.724;2024-03-02T04:04:44;4.15;;;2.55;;
39264;SDS011;42646;51.910;7.724;2024-03-02T04:07:14;4.05;;;2.58;;
39264;SDS011;42646;51.910;7.724;2024-03-02T04:09:41;4.90;;;2.75;;
39264;SDS011;42646;51.910;7.724;2024-03-02T04:12:09;4.25;;;2.55;;
39264;SDS011;42646;51.910;7.724;2024-03-02T04:14:39;5.07;;;2.55;;
39264;SDS011;42646;51.910;7.724;2024-03-02T04:17:08;4.88;;;2.70;;
39264;SDS011;42646;51.910;7.724;2024-03-02T04:19:36;3.85;;;2.50;;
39264;SDS011;42646;51.910;7.724;2024-03-02T04:22:04;4.38;;;2.80;;
39264;SDS011;42646;51.910;7.724;2024-03-02T04:24:45;4.43;;;2.60;;
39264;SDS011;42646;51.910;7.724;2024-03-02T04:27:13;4.65;;;2.80;;
39264;SDS011;42646;51.910;7.724;2024-03-02T04:29:41;4.07;;;2.60;;
39264;SDS011;42646;51.910;7.724;2024-03-02T04:32:08;4.43;;;2.80;;
39264;SDS011;42646;51.910;7.724;2024-03-02T04:34:36;6.32;;;2.83;;
39264;SDS011;42646;51.910;7.724;2024-03-02T04:37:03;5.00;;;2.50;;
39264;SDS011;42646;51.910;7.724;2024-03-02T04:39:31;4.78;;;2.60;;
39264;SDS011;42646;51.910;7.724;2024-03-02T04:41:59;4.57;;;2.60;;
39264;SDS011;42646;51.910;7.724;2024-03-02T04:44:27;4.80;;;2.70;;
39264;SDS011;42646;51.910;7.724;2024-03-02T04:46:55;4.68;;;3.00;;
39264;SDS011;42646;51.910;7.724;2024-03-02T04:49:22;5.07;;;2.92;;
39264;SDS011;42646;51.910;7.724;2024-03-02T04:51:50;5.05;;;3.10;;
39264;SDS011;42646;51.910;7.724;2024-03-02T04:54:18;5.85;;;2.80;;
39264;SDS011;42646;51.910;7.724;2024-03-02T04:56:46;4.57;;;2.83;;
39264;SDS011;42646;51.910;7.724;2024-03-02T04:59:18;4.88;;;2.85;;
39264;SDS011;42646;51.910;7.724;2024-03-02T05:01:46;4.10;;;2.70;;
39264;SDS011;42646;51.910;7.724;2024-03-02T05:04:14;5.38;;;3.15;;
39264;SDS011;42646;51.910;7.724;2024-03-02T05:06:42;4.43;;;2.78;;
39264;SDS011;42646;51.910;7.724;2024-03-02T05:09:10;5.18;;;3.28;;
39264;SDS011;42646;51.910;7.724;2024-03-02T05:11:37;4.40;;;2.75;;
39264;SDS011;42646;51.910;7.724;2024-03-02T05:14:24;5.50;;;3.38;;
39264;SDS011;42646;51.910;7.724;2024-03-02T05:16:51;4.75;;;3.08;;
39264;SDS011;42646;51.910;7.724;2024-03-02T05:19:19;5.53;;;2.83;;
39264;SDS011;42646;51.910;7.724;2024-03-02T05:21:47;5.28;;;3.47;;
39264;SDS011;42646;51.910;7.724;2024-03-02T05:24:15;4.60;;;2.97;;
39264;SDS011;42646;51.910;7.724;2024-03-02T05:26:42;5.20;;;3.10;;
39264;SDS011;42646;51.910;7.724;2024-03-02T05:29:10;5.47;;;3.40;;
39264;SDS011;42646;51.910;7.724;2024-03-02T05:31:39;6.50;;;3.30;;
39264;SDS011;42646;51.910;7.724;2024-03-02T05:34:07;4.82;;;3.13;;
39264;SDS011;42646;51.910;7.724;2024-03-02T05:36:34;6.60;;;3.63;;
39264;SDS011;42646;51.910;7.724;2024-03-02T05:39:02;4.47;;;2.90;;
39264;SDS011;42646;51.910;7.724;2024-03-02T05:41:31;6.18;;;3.60;;
39264;SDS011;42646;51.910;7.724;2024-03-02T05:43:59;6.40;;;3.72;;
39264;SDS011;42646;51.910;7.724;2024-03-02T05:46:27;5.47;;;3.45;;
39264;SDS011;42646;51.910;7.724;2024-03-02T05:48:56;5.32;;;3.20;;
39264;SDS011;42646;51.910;7.724;2024-03-02T05:51:24;5.05;;;3.10;;
39264;SDS011;42646;51.910;7.724;2024-03-02T05:53:52;6.15;;;3.83;;
39264;SDS011;42646;51.910;7.724;2024-03-02T05:56:19;6.38;;;3.17;;
39264;SDS011;42646;51.910;7.724;2024-03-02T05:58:47;5.28;;;3.10;;
39264;SDS011;42646;51.910;7.724;2024-03-02T06:01:34;5.45;;;3.45;;
39264;SDS011;42646;51.910;7.724;2024-03-02T06:04:03;6.75;;;3.80;;
39264;SDS011;42646;51.910;7.724;2024-03-02T06:06:31;8.23;;;4.20;;
39264;SDS011;42646;51.910;7.724;2024-03-02T06:08:59;6.50;;;3.90;;
39264;SDS011;42646;51.910;7.724;2024-03-02T06:11:28;6.00;;;4.00;;
39264;SDS011;42646;51.910;7.724;2024-03-02T06:13:56;7.45;;;3.90;;
39264;SDS011;42646;51.910;7.724;2024-03-02T06:16:24;6.93;;;4.18;;
39264;SDS011;42646;51.910;7.724;2024-03-02T06:18:51;7.60;;;4.20;;
39264;SDS011;42646;51.910;7.724;2024-03-02T06:21:21;7.18;;;4.03;;
39264;SDS011;42646;51.910;7.724;2024-03-02T06:23:49;6.47;;;3.83;;
39264;SDS011;42646;51.910;7.724;2024-03-02T06:26:17;5.47;;;3.42;;
39264;SDS011;42646;51.910;7.724;2024-03-02T06:28:47;6.53;;;3.70;;
39264;SDS011;42646;51.910;7.724;2024-03-02T06:31:15;5.60;;;3.58;;
39264;SDS011;42646;51.910;7.724;2024-03-02T06:33:42;5.75;;;3.72;;
39264;SDS011;42646;51.910;7.724;2024-03-02T06:36:10;6.07;;;3.40;;
39264;SDS011;42646;51.910;7.724;2024-03-02T06:38:40;5.70;;;3.10;;
39264;SDS011;42646;51.910;7.724;2024-03-02T06:41:09;6.40;;;3.33;;
39264;SDS011;42646;51.910;7.724;2024-03-02T06:43:37;7.40;;;4.28;;
39264;SDS011;42646;51.910;7.724;2024-03-02T06:46:05;6.32;;;3.50;;
39264;SDS011;42646;51.910;7.724;2024-03-02T06:48:35;5.75;;;3.60;;
39264;SDS011;42646;51.910;7.724;2024-03-02T06:51:03;6.10;;;3.45;;
39264;SDS011;42646;51.910;7.724;2024-03-02T06:53:31;5.47;;;3.50;;
39264;SDS011;42646;51.910;7.724;2024-03-02T06:56:01;5.72;;;3.83;;
39264;SDS011;42646;51.910;7.724;2024-03-02T06:58:29;5.78;;;3.53;;
39264;SDS011;42646;51.910;7.724;2024-03-02T07:00:57;6.53;;;3.78;;
39264;SDS011;42646;51.910;7.724;2024-03-02T07:03:26;7.03;;;3.63;;
39264;SDS011;42646;51.910;7.724;2024-03-02T07:05:55;6.13;;;3.83;;
39264;SDS011;42646;51.910;7.724;2024-03-02T07:08:23;6.80;;;3.90;;
39264;SDS011;42646;51.910;7.724;2024-03-02T07:10:51;5.60;;;3.42;;
39264;SDS011;42646;51.910;7.724;2024-03-02T07:13:20;7.63;;;3.88;;
39264;SDS011;42646;51.910;7.724;2024-03-02T07:15:47;5.28;;;3.22;;
39264;SDS011;42646;51.910;7.724;2024-03-02T07:18:41;7.57;;;4.30;;
39264;SDS011;42646;51.910;7.724;2024-03-02T07:21:17;5.30;;;3.17;;
39264;SDS011;42646;51.910;7.724;2024-03-02T07:23:45;6.70;;;3.58;;
39264;SDS011;42646;51.910;7.724;2024-03-02T07:26:12;4.82;;;3.50;;
39264;SDS011;42646;51.910;7.724;2024-03-02T07:28:45;6.68;;;3.50;;
39264;SDS011;42646;51.910;7.724;2024-03-02T07:31:14;5.47;;;3.42;;
39264;SDS011;42646;51.910;7.724;2024-03-02T07:33:43;7.00;;;3.47;;
39264;SDS011;42646;51.910;7.724;2024-03-02T07:36:11;6.55;;;3.63;;
39264;SDS011;42646;51.910;7.724;2024-03-02T07:38:39;6.80;;;3.20;;
39264;SDS011;42646;51.910;7.724;2024-03-02T07:41:07;5.60;;;3.20;;
39264;SDS011;42646;51.910;7.724;2024-03-02T07:43:37;4.55;;;3.17;;
39264;SDS011;42646;51.910;7.724;2024-03-02T07:46:07;6.38;;;3.40;;
39264;SDS011;42646;51.910;7.724;2024-03-02T07:48:35;5.70;;;3.13;;
39264;SDS011;42646;51.910;7.724;2024-03-02T07:51:03;5.90;;;3.42;;
39264;SDS011;42646;51.910;7.724;2024-03-02T07:53:31;5.75;;;3.20;;
39264;SDS011;42646;51.910;7.724;2024-03-02T07:55:58;6.10;;;3.60;;
39264;SDS011;42646;51.910;7.724;2024-03-02T07:58:28;7.05;;;3.50;;
39264;SDS011;42646;51.910;7.724;2024-03-02T08:00:58;6.65;;;3.50;;
39264;SDS011;42646;51.910;7.724;2024-03-02T08:03:29;6.47;;;3.58;;
39264;SDS011;42646;51.910;7.724;2024-03-02T08:05:58;6.53;;;3.53;;
39264;SDS011;42646;51.910;7.724;2024-03-02T08:08:26;5.93;;;3.50;;
39264;SDS011;42646;51.910;7.724;2024-03-02T08:10:54;9.68;;;3.50;;
39264;SDS011;42646;51.910;7.724;2024-03-02T08:13:24;6.38;;;3.38;;
39264;SDS011;42646;51.910;7.724;2024-03-02T08:15:51;6.97;;;3.58;;
39264;SDS011;42646;51.910;7.724;2024-03-02T08:18:19;7.05;;;3.75;;
39264;SDS011;42646;51.910;7.724;2024-03-02T08:20:48;5.90;;;3.60;;
39264;SDS011;42646;51.910;7.724;2024-03-02T08:23:17;7.18;;;3.85;;
39264;SDS011;42646;51.910;7.724;2024-03-02T08:25:45;5.63;;;3.33;;
39264;SDS011;42646;51.910;7.724;2024-03-02T08:28:13;6.32;;;3.45;;
39264;SDS011;42646;51.910;7.724;2024-03-02T08:30:41;6.05;;;3.72;;
39264;SDS011;42646;51.910;7.724;2024-03-02T08:33:08;6.30;;;3.35;;
39264;SDS011;42646;51.910;7.724;2024-03-02T08:35:36;7.05;;;3.72;;
39264;SDS011;42646;51.910;7.724;2024-03-02T08:38:05;6.88;;;3.75;;
39264;SDS011;42646;51.910;7.724;2024-03-02T08:40:33;7.30;;;3.40;;
39264;SDS011;42646;51.910;7.724;2024-03-02T08:43:01;5.18;;;3.25;;
39264;SDS011;42646;51.910;7.724;2024-03-02T08:45:29;8.27;;;3.58;;
39264;SDS011;42646;51.910;7.724;2024-03-02T08:47:57;8.20;;;3.58;;
39264;SDS011;42646;51.910;7.724;2024-03-02T08:50:25;5.95;;;3.30;;
39264;SDS011;42646;51.910;7.724;2024-03-02T08:52:53;6.60;;;3.50;;
39264;SDS011;42646;51.910;7.724;2024-03-02T08:55:22;5.03;;;3.40;;
39264;SDS011;42646;51.910;7.724;2024-03-02T08:57:50;5.25;;;3.10;;
39264;SDS011;42646;51.910;7.724;2024-03-02T09:00:18;5.82;;;3.33;;
39264;SDS011;42646;51.910;7.724;2024-03-02T09:02:46;8.07;;;3.65;;
39264;SDS011;42646;51.910;7.724;2024-03-02T09:05:14;7.43;;;3.42;;
39264;SDS011;42646;51.910;7.724;2024-03-02T09:07:42;5.57;;;3.40;;
39264;SDS011;42646;51.910;7.724;2024-03-02T09:10:09;5.80;;;3.30;;
39264;SDS011;42646;51.910;7.724;2024-03-02T09:12:38;6.07;;;3.28;;
39264;SDS011;42646;51.910;7.724;2024-03-02T09:15:07;5.45;;;3.35;;
39264;SDS011;42646;51.910;7.724;2024-03-02T09:17:35;5.20;;;3.50;;
39264;SDS011;42646;51.910;7.724;2024-03-02T09:20:04;6.38;;;3.42;;
39264;SDS011;42646;51.910;7.724;2024-03-02T09:22:32;5.30;;;3.38;;
39264;SDS011;42646;51.910;7.724;2024-03-02T09:24:59;6.38;;;3.40;;
39264;SDS011;42646;51.910;7.724;2024-03-02T09:27:27;5.07;;;3.10;;
39264;SDS011;42646;51.910;7.724;2024-03-02T09:29:56;5.47;;;3.13;;
39264;SDS011;42646;51.910;7.724;2024-03-02T09:32:24;4.43;;;3.13;;
39264;SDS011;42646;51.910;7.724;2024-03-02T09:34:52;4.93;;;3.03;;
39264;SDS011;42646;51.910;7.724;2024-03-02T09:37:19;5.60;;;2.80;;
39264;SDS011;42646;51.910;7.724;2024-03-02T09:39:47;5.10;;;3.30;;
39264;SDS011;42646;51.910;7.724;2024-03-02T09:42:15;4.72;;;2.88;;
39264;SDS011;42646;51.910;7.724;2024-03-02T09:44:43;5.72;;;3.13;;
39264;SDS011;42646;51.910;7.724;2024-03-02T09:47:12;5.82;;;2.70;;
39264;SDS011;42646;51.910;7.724;2024-03-02T09:49:40;5.40;;;2.70;;
39264;SDS011;42646;51.910;7.724;2024-03-02T09:52:08;4.75;;;2.53;;
39264;SDS011;42646;51.910;7.724;2024-03-02T09:54:38;4.32;;;2.50;;
39264;SDS011;42646;51.910;7.724;2024-03-02T09:57:06;4.85;;;2.58;;
39264;SDS011;42646;51.910;7.724;2024-03-02T09:59:33;5.32;;;3.05;;
39264;SDS011;42646;51.910;7.724;2024-03-02T10:02:02;3.92;;;2.50;;
39264;SDS011;42646;51.910;7.724;2024-03-02T10:04:31;4.15;;;2.67;;
39264;SDS011;42646;51.910;7.724;2024-03-02T10:07:09;4.75;;;2.35;;
39264;SDS011;42646;51.910;7.724;2024-03-02T10:09:38;3.60;;;2.13;;
39264;SDS011;42646;51.910;7.724;2024-03-02T10:12:06;6.60;;;2.10;;
39264;SDS011;42646;51.910;7.724;2024-03-02T10:14:35;3.40;;;2.00;;
39264;SDS011;42646;51.910;7.724;2024-03-02T10:17:03;4.45;;;2.00;;
39264;SDS011;42646;51.910;7.724;2024-03-02T10:19:34;4.03;;;2.20;;
39264;SDS011;42646;51.910;7.724;2024-03-02T10:22:03;5.70;;;2.00;;
39264;SDS011;42646;51.910;7.724;2024-03-02T10:24:36;4.22;;;2.08;;
39264;SDS011;42646;51.910;7.724;2024-03-02T10:27:08;3.00;;;1.75;;
39264;SDS011;42646;51.910;7.724;2024-03-02T10:32:06;3.65;;;2.00;;
39264;SDS011;42646;51.910;7.724;2024-03-02T10:34:38;3.53;;;2.10;;
39264;SDS011;42646;51.910;7.724;2024-03-02T10:37:08;3.70;;;2.05;;
39264;SDS011;42646;51.910;7.724;2024-03-02T10:39:36;3.72;;;2.20;;
39264;SDS011;42646;51.910;7.724;2024-03-02T10:42:06;4.45;;;2.25;;
39264;SDS011;42646;51.910;7.724;2024-03-02T10:44:34;4.43;;;2.08;;
39264;SDS011;42646;51.910;7.724;2024-03-02T10:47:03;3.72;;;1.77;;
39264;SDS011;42646;51.910;7.724;2024-03-02T10:49:32;5.07;;;1.75;;
39264;SDS011;42646;51.910;7.724;2024-03-02T10:52:02;3.78;;;1.92;;
39264;SDS011;42646;51.910;7.724;2024-03-02T10:54:30;3.38;;;1.88;;
39264;SDS011;42646;51.910;7.724;2024-03-02T10:57:04;3.05;;;1.80;;
39264;SDS011;42646;51.910;7.724;2024-03-02T10:59:36;3.70;;;1.90;;
39264;SDS011;42646;51.910;7.724;2024-03-02T11:02:06;3.67;;;2.00;;
39264;SDS011;42646;51.910;7.724;2024-03-02T11:04:35;3.63;;;1.92;;
39264;SDS011;42646;51.910;7.724;2024-03-02T11:07:06;3.70;;;1.92;;
39264;SDS011;42646;51.910;7.724;2024-03-02T11:09:38;2.88;;;1.80;;
39264;SDS011;42646;51.910;7.724;2024-03-02T11:12:09;3.25;;;1.80;;
39264;SDS011;42646;51.910;7.724;2024-03-02T11:14:40;4.10;;;2.30;;
39264;SDS011;42646;51.910;7.724;2024-03-02T11:17:10;3.30;;;1.70;;
39264;SDS011;42646;51.910;7.724;2024-03-02T11:19:42;3.60;;;1.90;;
39264;SDS011;42646;51.910;7.724;2024-03-02T11:22:12;3.78;;;1.75;;
39264;SDS011;42646;51.910;7.724;2024-03-02T11:24:48;2.85;;;1.67;;
39264;SDS011;42646;51.910;7.724;2024-03-02T11:33:22;3.22;;;1.67;;
39264;SDS011;42646;51.910;7.724;2024-03-02T11:35:51;2.70;;;1.40;;
39264;SDS011;42646;51.910;7.724;2024-03-02T11:38:20;3.33;;;1.90;;
39264;SDS011;42646;51.910;7.724;2024-03-02T11:40:48;2.72;;;1.60;;
39264;SDS011;42646;51.910;7.724;2024-03-02T11:43:16;3.47;;;1.90;;
39264;SDS011;42646;51.910;7.724;2024-03-02T11:45:44;3.75;;;1.65;;
39264;SDS011;42646;51.910;7.724;2024-03-02T11:48:13;3.53;;;1.58;;
39264;SDS011;42646;51.910;7.724;2024-03-02T11:50:43;3.28;;;1.55;;
39264;SDS011;42646;51.910;7.724;2024-03-02T11:53:15;2.67;;;1.50;;
39264;SDS011;42646;51.910;7.724;2024-03-02T11:55:46;3.28;;;1.60;;
39264;SDS011;42646;51.910;7.724;2024-03-02T11:58:15;2.67;;;1.50;;
39264;SDS011;42646;51.910;7.724;2024-03-02T12:00:46;3.40;;;1.40;;
39264;SDS011;42646;51.910;7.724;2024-03-02T12:03:14;2.05;;;1.27;;
39264;SDS011;42646;51.910;7.724;2024-03-02T12:05:42;2.90;;;1.40;;
39264;SDS011;42646;51.910;7.724;2024-03-02T12:08:10;2.55;;;1.33;;
39264;SDS011;42646;51.910;7.724;2024-03-02T12:10:39;3.38;;;1.30;;
39264;SDS011;42646;51.910;7.724;2024-03-02T12:13:09;8.85;;;1.70;;
39264;SDS011;42646;51.910;7.724;2024-03-02T12:15:38;2.20;;;1.20;;
39264;SDS011;42646;51.910;7.724;2024-03-02T12:18:07;2.10;;;1.20;;
39264;SDS011;42646;51.910;7.724;2024-03-02T12:20:34;2.17;;;1.20;;
39264;SDS011;42646;51.910;7.724;2024-03-02T12:23:03;2.90;;;1.30;;
39264;SDS011;42646;51.910;7.724;2024-03-02T12:25:32;1.98;;;1.25;;
39264;SDS011;42646;51.910;7.724;2024-03-02T12:28:00;3.92;;;1.30;;
39264;SDS011;42646;51.910;7.724;2024-03-02T12:30:31;2.30;;;1.20;;
39264;SDS011;42646;51.910;7.724;2024-03-02T12:33:02;2.45;;;1.33;;
39264;SDS011;42646;51.910;7.724;2024-03-02T12:35:30;3.95;;;1.73;;
39264;SDS011;42646;51.910;7.724;2024-03-02T12:37:58;2.47;;;1.50;;
39264;SDS011;42646;51.910;7.724;2024-03-02T12:40:26;2.83;;;1.50;;
39264;SDS011;42646;51.910;7.724;2024-03-02T12:42:53;3.17;;;1.42;;
39264;SDS011;42646;51.910;7.724;2024-03-02T12:45:21;2.17;;;1.30;;
39264;SDS011;42646;51.910;7.724;2024-03-02T12:47:53;2.30;;;1.38;;
39264;SDS011;42646;51.910;7.724;2024-03-02T12:50:21;3.35;;;1.58;;
39264;SDS011;42646;51.910;7.724;2024-03-02T12:52:52;3.33;;;1.33;;
39264;SDS011;42646;51.910;7.724;2024-03-02T12:55:20;2.50;;;1.40;;
39264;SDS011;42646;51.910;7.724;2024-03-02T12:57:49;3.35;;;1.40;;
39264;SDS011;42646;51.910;7.724;2024-03-02T13:00:19;3.10;;;1.45;;
39264;SDS011;42646;51.910;7.724;2024-03-02T13:02:49;2.30;;;1.30;;
39264;SDS011;42646;51.910;7.724;2024-03-02T13:05:20;2.30;;;1.25;;
39264;SDS011;42646;51.910;7.724;2024-03-02T13:07:49;2.38;;;1.30;;
39264;SDS011;42646;51.910;7.724;2024-03-02T13:10:16;3.35;;;1.40;;
39264;SDS011;42646;51.910;7.724;2024-03-02T13:12:45;2.35;;;1.30;;
39264;SDS011;42646;51.910;7.724;2024-03-02T13:15:13;2.92;;;1.42;;
39264;SDS011;42646;51.910;7.724;2024-03-02T13:17:44;2.83;;;1.30;;
39264;SDS011;42646;51.910;7.724;2024-03-02T13:20:13;2.80;;;1.42;;
39264;SDS011;42646;51.910;7.724;2024-03-02T13:22:44;1.80;;;1.20;;
39264;SDS011;42646;51.910;7.724;2024-03-02T13:25:12;2.75;;;1.30;;
39264;SDS011;42646;51.910;7.724;2024-03-02T13:27:41;2.67;;;1.45;;
39264;SDS011;42646;51.910;7.724;2024-03-02T13:30:09;2.85;;;1.30;;
39264;SDS011;42646;51.910;7.724;2024-03-02T13:32:38;1.77;;;1.20;;
39264;SDS011;42646;51.910;7.724;2024-03-02T13:35:05;2.85;;;1.45;;
39264;SDS011;42646;51.910;7.724;2024-03-02T13:37:33;2.72;;;1.30;;
39264;SDS011;42646;51.910;7.724;2024-03-02T13:40:05;2.28;;;1.25;;
39264;SDS011;42646;51.910;7.724;2024-03-02T13:42:39;2.50;;;1.20;;
39264;SDS011;42646;51.910;7.724;2024-03-02T13:45:07;1.90;;;1.20;;
39264;SDS011;42646;51.910;7.724;2024-03-02T13:47:35;1.90;;;1.20;;
39264;SDS011;42646;51.910;7.724;2024-03-02T13:50:03;2.22;;;1.20;;
39264;SDS011;42646;51.910;7.724;2024-03-02T13:52:31;1.70;;;1.08;;
39264;SDS011;42646;51.910;7.724;2024-03-02T13:54:59;1.80;;;1.20;;
39264;SDS011;42646;51.910;7.724;2024-03-02T13:57:28;2.60;;;1.10;;
39264;SDS011;42646;51.910;7.724;2024-03-02T13:59:57;2.30;;;1.30;;
39264;SDS011;42646;51.910;7.724;2024-03-02T14:02:24;2.17;;;1.20;;
39264;SDS011;42646;51.910;7.724;2024-03-02T14:04:52;1.58;;;0.93;;
39264;SDS011;42646;51.910;7.724;2024-03-02T14:07:20;1.95;;;1.10;;
39264;SDS011;42646;51.910;7.724;2024-03-02T14:09:48;1.65;;;0.95;;
39264;SDS011;42646;51.910;7.724;2024-03-02T14:12:15;2.00;;;1.02;;
39264;SDS011;42646;51.910;7.724;2024-03-02T14:14:44;2.40;;;1.20;;
39264;SDS011;42646;51.910;7.724;2024-03-02T14:17:12;2.30;;;1.10;;
39264;SDS011;42646;51.910;7.724;2024-03-02T14:19:42;1.77;;;1.15;;
39264;SDS011;42646;51.910;7.724;2024-03-02T14:22:09;2.08;;;1.30;;
39264;SDS011;42646;51.910;7.724;2024-03-02T14:24:40;2.70;;;1.50;;
39264;SDS011;42646;51.910;7.724;2024-03-02T14:27:09;4.03;;;1.50;;
39264;SDS011;42646;51.910;7.724;2024-03-02T14:29:55;2.38;;;1.30;;
39264;SDS011;42646;51.910;7.724;2024-03-02T14:32:22;2.95;;;1.60;;
39264;SDS011;42646;51.910;7.724;2024-03-02T14:34:50;2.88;;;1.50;;
39264;SDS011;42646;51.910;7.724;2024-03-02T14:37:18;1.98;;;1.35;;
39264;SDS011;42646;51.910;7.724;2024-03-02T14:39:45;4.30;;;1.40;;
39264;SDS011;42646;51.910;7.724;2024-03-02T14:42:13;2.38;;;1.40;;
39264;SDS011;42646;51.910;7.724;2024-03-02T14:44:41;3.45;;;1.48;;
39264;SDS011;42646;51.910;7.724;2024-03-02T14:47:10;3.10;;;1.50;;
39264;SDS011;42646;51.910;7.724;2024-03-02T14:49:38;2.17;;;1.10;;
39264;SDS011;42646;51.910;7.724;2024-03-02T14:52:08;3.92;;;1.20;;
39264;SDS011;42646;51.910;7.724;2024-03-02T14:54:35;1.85;;;1.10;;
39264;SDS011;42646;51.910;7.724;2024-03-02T14:57:04;2.25;;;1.20;;
39264;SDS011;42646;51.910;7.724;2024-03-02T14:59:33;2.25;;;1.10;;
39264;SDS011;42646;51.910;7.724;2024-03-02T15:02:00;1.48;;;1.10;;
39264;SDS011;42646;51.910;7.724;2024-03-02T15:04:30;1.95;;;1.13;;
39264;SDS011;42646;51.910;7.724;2024-03-02T15:06:57;1.85;;;1.08;;